Time;durP1;ratioP1;P1;durP2;ratioP2;P2;SDS_P1;SDS_P2;PMS_P1;PMS_P2;Temp;Humidity;BMP_temperature;BMP_pressure;BME280_temperature;BME280_humidity;BME280_pressure;Samples;Min_cycle;Max_cycle;Signal;HPM_P1;HPM_P2
2024/01/06 00:00:23;;;;;;;23.92;10.23;;;;;;;;;;4999113;28;20041;-58
2024/01/06 00:02:49;;;;;;;24.02;10.35;;;;;;;;;;5001069;28;20046;-59
2024/01/06 00:05:15;;;;;;;30.90;11.90;;;;;;;;;;5000947;28;20046;-57
2024/01/06 00:07:41;;;;;;;27.55;11.27;;;;;;;;;;5001455;28;20391;-57
2024/01/06 00:10:08;;;;;;;25.67;10.40;;;;;;;;;;4997584;28;20062;-57
2024/01/06 00:12:34;;;;;;;21.25;9.65;;;;;;;;;;4996995;28;20041;-58
2024/01/06 00:15:01;;;;;;;19.10;8.55;;;;;;;;;;4997543;28;20057;-57
2024/01/06 00:17:28;;;;;;;20.77;9.55;;;;;;;;;;4999957;28;20073;-58
2024/01/06 00:19:54;;;;;;;14.95;7.72;;;;;;;;;;5003804;28;20057;-57
2024/01/06 00:22:21;;;;;;;16.15;8.00;;;;;;;;;;5008395;28;20045;-58
2024/01/06 00:24:48;;;;;;;14.45;7.95;;;;;;;;;;5003196;28;20379;-57
2024/01/06 00:27:15;;;;;;;23.77;7.28;;;;;;;;;;5001289;28;20061;-58
2024/01/06 00:29:41;;;;;;;16.80;6.32;;;;;;;;;;4998945;28;20046;-57
2024/01/06 00:32:07;;;;;;;13.27;5.93;;;;;;;;;;5002144;28;20034;-58
2024/01/06 00:34:33;;;;;;;12.18;5.20;;;;;;;;;;4992437;28;20026;-56
2024/01/06 00:37:00;;;;;;;12.77;5.43;;;;;;;;;;4995455;28;20034;-57
2024/01/06 00:39:26;;;;;;;10.43;5.20;;;;;;;;;;5003778;28;20041;-58
2024/01/06 00:41:52;;;;;;;7.95;4.05;;;;;;;;;;5001835;28;20061;-58
2024/01/06 00:44:18;;;;;;;7.35;4.03;;;;;;;;;;4997775;28;20045;-57
2024/01/06 00:46:45;;;;;;;13.10;4.70;;;;;;;;;;4997453;28;20050;-57
2024/01/06 00:49:11;;;;;;;11.70;4.00;;;;;;;;;;5002289;28;20045;-58
2024/01/06 00:51:37;;;;;;;12.10;4.68;;;;;;;;;;4998307;28;20026;-58
2024/01/06 00:54:03;;;;;;;9.90;5.25;;;;;;;;;;4998581;28;20068;-57
2024/01/06 00:56:29;;;;;;;9.00;5.20;;;;;;;;;;4998052;28;20058;-58
2024/01/06 00:58:55;;;;;;;14.45;5.65;;;;;;;;;;4998212;28;20046;-56
2024/01/06 01:01:21;;;;;;;11.07;4.72;;;;;;;;;;4996067;28;20052;-60
2024/01/06 01:03:47;;;;;;;11.73;4.45;;;;;;;;;;4998031;28;20042;-61
2024/01/06 01:06:13;;;;;;;10.48;4.40;;;;;;;;;;5002612;28;20037;-58
2024/01/06 01:08:40;;;;;;;11.20;5.32;;;;;;;;;;4998881;28;20281;-57
2024/01/06 01:11:06;;;;;;;7.47;4.55;;;;;;;;;;4997590;28;20046;-57
2024/01/06 01:13:32;;;;;;;11.82;4.97;;;;;;;;;;4995193;28;20053;-57
2024/01/06 01:15:58;;;;;;;14.52;6.55;;;;;;;;;;5001284;28;20038;-57
2024/01/06 01:18:24;;;;;;;14.77;6.13;;;;;;;;;;4998437;28;20029;-57
2024/01/06 01:20:50;;;;;;;13.75;6.45;;;;;;;;;;5001889;28;20042;-56
2024/01/06 01:23:16;;;;;;;19.42;8.65;;;;;;;;;;5000314;28;20504;-58
2024/01/06 01:25:42;;;;;;;22.00;8.50;;;;;;;;;;5002893;28;20033;-58
2024/01/06 01:28:09;;;;;;;24.30;9.27;;;;;;;;;;5014873;28;20026;-58
2024/01/06 01:30:35;;;;;;;24.13;9.52;;;;;;;;;;5018743;28;20500;-57
2024/01/06 01:33:01;;;;;;;22.42;8.85;;;;;;;;;;5001543;28;20485;-56
2024/01/06 01:35:27;;;;;;;18.90;8.88;;;;;;;;;;5004708;28;20037;-58
2024/01/06 01:37:53;;;;;;;21.67;9.48;;;;;;;;;;5000786;28;20452;-57
2024/01/06 01:40:19;;;;;;;19.42;10.25;;;;;;;;;;5005303;28;20029;-57
2024/01/06 01:42:46;;;;;;;16.98;9.18;;;;;;;;;;5004251;28;20057;-56
2024/01/06 01:45:12;;;;;;;16.23;8.10;;;;;;;;;;5004733;28;20050;-57
2024/01/06 01:47:39;;;;;;;18.52;8.43;;;;;;;;;;5001485;28;20042;-57
2024/01/06 01:50:06;;;;;;;15.73;7.55;;;;;;;;;;5004471;28;20057;-57
2024/01/06 01:52:32;;;;;;;14.43;7.90;;;;;;;;;;5000665;28;20045;-58
2024/01/06 01:54:59;;;;;;;14.30;7.72;;;;;;;;;;5001208;28;20045;-56
2024/01/06 01:57:25;;;;;;;14.65;7.75;;;;;;;;;;5001407;28;20042;-56
2024/01/06 01:59:52;;;;;;;13.48;7.80;;;;;;;;;;4997499;28;20512;-56
2024/01/06 02:02:19;;;;;;;15.07;8.20;;;;;;;;;;4998646;28;20038;-57
2024/01/06 02:04:45;;;;;;;13.27;7.95;;;;;;;;;;5005529;28;20040;-58
2024/01/06 02:07:11;;;;;;;19.38;7.80;;;;;;;;;;4992125;28;20049;-58
2024/01/06 02:09:37;;;;;;;14.70;8.00;;;;;;;;;;4999627;28;20061;-58
2024/01/06 02:12:03;;;;;;;16.75;8.73;;;;;;;;;;4999541;28;20046;-58
2024/01/06 02:14:30;;;;;;;14.75;7.95;;;;;;;;;;5002464;28;20034;-59
2024/01/06 02:16:56;;;;;;;16.58;8.35;;;;;;;;;;5000620;28;20030;-57
2024/01/06 02:19:23;;;;;;;18.50;7.75;;;;;;;;;;5000844;28;20046;-59
2024/01/06 02:21:53;;;;;;;15.35;7.93;;;;;;;;;;5004875;28;20382;-59
2024/01/06 02:24:19;;;;;;;13.88;6.13;;;;;;;;;;5004177;28;20417;-59
2024/01/06 02:26:46;;;;;;;9.98;5.30;;;;;;;;;;5003628;28;20040;-58
2024/01/06 02:29:12;;;;;;;12.88;6.40;;;;;;;;;;4999565;28;20045;-59
2024/01/06 02:31:38;;;;;;;10.82;6.07;;;;;;;;;;4995784;28;20041;-59
2024/01/06 02:34:04;;;;;;;12.00;5.78;;;;;;;;;;5001270;28;20060;-58
2024/01/06 02:36:30;;;;;;;12.20;5.63;;;;;;;;;;5003436;28;20501;-59
2024/01/06 02:38:56;;;;;;;9.45;5.03;;;;;;;;;;5002029;28;20029;-58
2024/01/06 02:41:22;;;;;;;9.68;4.97;;;;;;;;;;5002472;28;20042;-58
2024/01/06 02:43:48;;;;;;;11.68;4.60;;;;;;;;;;4999270;28;20046;-59
2024/01/06 02:46:14;;;;;;;7.50;3.67;;;;;;;;;;5000724;28;20053;-59
2024/01/06 02:48:40;;;;;;;7.18;3.80;;;;;;;;;;5003202;28;20033;-59
2024/01/06 02:51:07;;;;;;;9.85;3.40;;;;;;;;;;5003563;28;20490;-59
2024/01/06 02:53:33;;;;;;;10.45;3.40;;;;;;;;;;5002200;28;20040;-59
2024/01/06 02:55:59;;;;;;;8.07;3.47;;;;;;;;;;4999905;28;20727;-59
2024/01/06 02:58:25;;;;;;;10.07;3.17;;;;;;;;;;5006029;28;20045;-59
2024/01/06 03:00:51;;;;;;;6.68;3.35;;;;;;;;;;5001466;28;20046;-59
2024/01/06 03:03:17;;;;;;;7.15;2.88;;;;;;;;;;4997153;28;20030;-59
2024/01/06 03:05:43;;;;;;;7.68;2.70;;;;;;;;;;5001633;28;20405;-59
2024/01/06 03:08:09;;;;;;;8.73;3.00;;;;;;;;;;4999461;28;20046;-57
2024/01/06 03:10:36;;;;;;;8.50;2.70;;;;;;;;;;4998176;28;20477;-59
2024/01/06 03:13:02;;;;;;;6.90;2.60;;;;;;;;;;4997526;28;20042;-59
2024/01/06 03:15:28;;;;;;;6.93;2.78;;;;;;;;;;4993971;28;20038;-59
2024/01/06 03:17:54;;;;;;;8.50;2.75;;;;;;;;;;5007662;28;20725;-59
2024/01/06 03:20:21;;;;;;;5.15;2.20;;;;;;;;;;5013667;28;20036;-59
2024/01/06 03:22:47;;;;;;;7.20;3.10;;;;;;;;;;5003931;28;20045;-60
2024/01/06 03:25:13;;;;;;;7.70;4.10;;;;;;;;;;5003174;28;20033;-58
2024/01/06 03:27:39;;;;;;;12.13;3.85;;;;;;;;;;5005302;28;20030;-59
2024/01/06 03:30:06;;;;;;;8.48;3.58;;;;;;;;;;5004683;28;20038;-59
2024/01/06 03:32:32;;;;;;;7.95;3.88;;;;;;;;;;5005819;28;20508;-58
2024/01/06 03:34:58;;;;;;;5.90;3.40;;;;;;;;;;4996196;28;20042;-58
2024/01/06 03:37:25;;;;;;;7.22;3.60;;;;;;;;;;5004600;28;20044;-58
2024/01/06 03:39:51;;;;;;;6.88;3.67;;;;;;;;;;5000870;28;20162;-58
2024/01/06 03:42:17;;;;;;;5.95;3.45;;;;;;;;;;5001152;28;20033;-58
2024/01/06 03:44:43;;;;;;;8.38;4.10;;;;;;;;;;4996099;28;20023;-59
2024/01/06 03:47:09;;;;;;;8.57;4.28;;;;;;;;;;4975639;28;20041;-56
2024/01/06 03:49:35;;;;;;;9.15;3.97;;;;;;;;;;4999125;28;20041;-58
2024/01/06 03:52:01;;;;;;;7.50;3.15;;;;;;;;;;4999502;28;20033;-59
2024/01/06 03:54:27;;;;;;;9.20;3.60;;;;;;;;;;5001741;28;20516;-58
2024/01/06 03:56:53;;;;;;;8.80;3.63;;;;;;;;;;4999515;28;20478;-59
2024/01/06 03:59:20;;;;;;;8.32;3.30;;;;;;;;;;4999324;28;20068;-59
2024/01/06 04:01:46;;;;;;;7.47;3.28;;;;;;;;;;4996181;28;20488;-59
2024/01/06 04:04:13;;;;;;;5.35;3.03;;;;;;;;;;4998467;28;20065;-59
2024/01/06 04:06:39;;;;;;;10.55;3.45;;;;;;;;;;4995641;28;20560;-56
2024/01/06 04:09:06;;;;;;;7.05;2.65;;;;;;;;;;4997416;28;20042;-59
2024/01/06 04:11:32;;;;;;;5.97;2.38;;;;;;;;;;5000905;28;20033;-57
2024/01/06 04:13:58;;;;;;;11.30;3.15;;;;;;;;;;4994212;28;20386;-59
2024/01/06 04:16:26;;;;;;;7.28;3.20;;;;;;;;;;4996799;28;20034;-59
2024/01/06 04:18:52;;;;;;;8.50;3.00;;;;;;;;;;4999675;28;20042;-59
2024/01/06 04:21:19;;;;;;;9.10;3.22;;;;;;;;;;5000820;28;20512;-59
2024/01/06 04:23:45;;;;;;;6.30;2.78;;;;;;;;;;4996921;28;20038;-59
2024/01/06 04:26:11;;;;;;;12.43;3.13;;;;;;;;;;5000602;28;20034;-60
2024/01/06 04:28:37;;;;;;;4.88;2.58;;;;;;;;;;4998635;28;20026;-59
2024/01/06 04:31:03;;;;;;;8.45;2.90;;;;;;;;;;5000285;28;20046;-59
2024/01/06 04:33:29;;;;;;;7.30;3.20;;;;;;;;;;4999263;28;20152;-59
2024/01/06 04:35:55;;;;;;;9.20;3.35;;;;;;;;;;5002423;28;20052;-59
2024/01/06 04:38:21;;;;;;;8.00;2.97;;;;;;;;;;5000203;28;20049;-59
2024/01/06 04:41:11;;;;;;;19.13;5.53;;;;;;;;;;4997987;28;20638;-56
2024/01/06 04:43:37;;;;;;;21.17;6.45;;;;;;;;;;4993004;28;20030;-59
2024/01/06 04:46:03;;;;;;;32.42;8.57;;;;;;;;;;4995105;28;20038;-59
2024/01/06 04:48:29;;;;;;;28.05;8.07;;;;;;;;;;4994666;28;20478;-59
2024/01/06 04:50:55;;;;;;;22.17;7.22;;;;;;;;;;4999078;28;20054;-59
2024/01/06 04:53:21;;;;;;;26.20;7.40;;;;;;;;;;4995979;28;20026;-57
2024/01/06 04:55:48;;;;;;;17.33;6.05;;;;;;;;;;5000092;28;20034;-59
2024/01/06 04:58:14;;;;;;;12.70;4.90;;;;;;;;;;4998023;28;20045;-59
2024/01/06 05:00:40;;;;;;;13.00;5.00;;;;;;;;;;5002699;28;20045;-59
2024/01/06 05:03:06;;;;;;;9.18;3.75;;;;;;;;;;4996550;28;20049;-58
2024/01/06 05:05:32;;;;;;;10.25;4.45;;;;;;;;;;4999185;28;20413;-58
2024/01/06 05:07:59;;;;;;;9.18;4.18;;;;;;;;;;5001713;28;20038;-58
2024/01/06 05:10:25;;;;;;;9.00;3.80;;;;;;;;;;4997505;28;20046;-59
2024/01/06 05:12:51;;;;;;;13.30;3.92;;;;;;;;;;5004912;28;20057;-60
2024/01/06 05:15:17;;;;;;;5.35;3.28;;;;;;;;;;5007119;28;20038;-59
2024/01/06 05:17:43;;;;;;;13.20;5.18;;;;;;;;;;5007793;28;20481;-59
2024/01/06 05:20:09;;;;;;;14.20;5.22;;;;;;;;;;5001690;28;20030;-59
2024/01/06 05:22:36;;;;;;;13.50;5.05;;;;;;;;;;5005295;28;20042;-59
2024/01/06 05:25:02;;;;;;;12.50;5.07;;;;;;;;;;4999707;28;20524;-57
2024/01/06 05:27:29;;;;;;;14.57;5.10;;;;;;;;;;5005581;28;20029;-55
2024/01/06 05:29:55;;;;;;;13.25;5.47;;;;;;;;;;5008320;28;20053;-57
2024/01/06 05:32:21;;;;;;;12.43;4.65;;;;;;;;;;5001904;28;20034;-59
2024/01/06 05:34:48;;;;;;;12.30;5.30;;;;;;;;;;5000334;28;20481;-59
2024/01/06 05:37:15;;;;;;;8.80;4.60;;;;;;;;;;4995746;28;20041;-59
2024/01/06 05:39:41;;;;;;;10.52;4.80;;;;;;;;;;5003990;28;20042;-60
2024/01/06 05:42:11;;;;;;;9.50;4.28;;;;;;;;;;5000632;28;20042;-59
2024/01/06 05:44:37;;;;;;;9.60;4.70;;;;;;;;;;5001376;28;20040;-58
2024/01/06 05:47:03;;;;;;;10.60;4.53;;;;;;;;;;5003987;28;20042;-58
2024/01/06 05:49:30;;;;;;;9.30;4.30;;;;;;;;;;5002699;28;20042;-59
2024/01/06 05:51:56;;;;;;;12.85;4.70;;;;;;;;;;5001167;28;20046;-59
2024/01/06 05:54:22;;;;;;;8.80;4.30;;;;;;;;;;4998698;28;20034;-59
2024/01/06 05:56:48;;;;;;;10.35;4.25;;;;;;;;;;5001031;28;20045;-59
2024/01/06 05:59:14;;;;;;;11.70;4.40;;;;;;;;;;5003355;28;20038;-58
2024/01/06 06:01:40;;;;;;;12.13;4.65;;;;;;;;;;5006251;28;20041;-59
2024/01/06 06:04:06;;;;;;;8.15;3.88;;;;;;;;;;5001692;28;20050;-59
2024/01/06 06:06:32;;;;;;;12.88;4.85;;;;;;;;;;5004804;28;20034;-58
2024/01/06 06:08:59;;;;;;;9.55;4.10;;;;;;;;;;5001882;28;20525;-59
2024/01/06 06:11:25;;;;;;;8.80;4.13;;;;;;;;;;5001408;28;20045;-59
2024/01/06 06:13:51;;;;;;;11.07;4.07;;;;;;;;;;5003503;28;20061;-59
2024/01/06 06:16:17;;;;;;;7.30;3.85;;;;;;;;;;4997502;28;20048;-58
2024/01/06 06:18:43;;;;;;;10.15;4.10;;;;;;;;;;5016241;28;20049;-59
2024/01/06 06:21:09;;;;;;;9.30;3.95;;;;;;;;;;5003710;28;20033;-58
2024/01/06 06:23:35;;;;;;;6.82;3.40;;;;;;;;;;4998672;28;20034;-58
2024/01/06 06:26:05;;;;;;;5.43;3.30;;;;;;;;;;5001928;28;20038;-58
2024/01/06 06:28:32;;;;;;;9.35;4.05;;;;;;;;;;5000256;28;20030;-59
2024/01/06 06:30:58;;;;;;;9.40;4.38;;;;;;;;;;4994364;28;20037;-59
2024/01/06 06:33:24;;;;;;;12.15;4.82;;;;;;;;;;5005970;28;20385;-59
2024/01/06 06:35:51;;;;;;;11.13;4.95;;;;;;;;;;5007914;28;20029;-59
2024/01/06 06:38:17;;;;;;;11.05;5.18;;;;;;;;;;5012605;28;20037;-59
2024/01/06 06:40:43;;;;;;;12.85;4.47;;;;;;;;;;5001029;28;20034;-59
2024/01/06 06:43:09;;;;;;;11.82;4.38;;;;;;;;;;5000267;28;20034;-60
2024/01/06 06:45:35;;;;;;;12.80;4.80;;;;;;;;;;5002581;28;20038;-58
2024/01/06 06:48:02;;;;;;;11.57;4.60;;;;;;;;;;5005003;28;20401;-59
2024/01/06 06:50:28;;;;;;;8.65;4.47;;;;;;;;;;4996470;28;20577;-60
2024/01/06 06:52:54;;;;;;;11.75;5.10;;;;;;;;;;5003636;28;20034;-59
2024/01/06 06:55:20;;;;;;;11.32;5.35;;;;;;;;;;4995705;28;20492;-60
2024/01/06 06:57:46;;;;;;;12.57;4.93;;;;;;;;;;5000185;28;20050;-59
2024/01/06 07:00:13;;;;;;;9.18;5.07;;;;;;;;;;5001563;28;20042;-59
2024/01/06 07:02:39;;;;;;;11.27;5.00;;;;;;;;;;4998532;28;20505;-59
2024/01/06 07:05:08;;;;;;;14.82;5.68;;;;;;;;;;5002469;28;20559;-59
2024/01/06 07:07:34;;;;;;;8.35;4.50;;;;;;;;;;4996307;28;20065;-59
2024/01/06 07:10:05;;;;;;;7.97;4.47;;;;;;;;;;4997958;28;20072;-59
2024/01/06 07:12:32;;;;;;;9.27;3.72;;;;;;;;;;5008386;28;20409;-60
2024/01/06 07:15:01;;;;;;;5.07;2.90;;;;;;;;;;5002944;28;20391;-58
2024/01/06 07:17:27;;;;;;;4.97;2.58;;;;;;;;;;4998689;28;20038;-59
2024/01/06 07:19:53;;;;;;;6.47;2.88;;;;;;;;;;4997651;28;20046;-59
2024/01/06 07:22:20;;;;;;;7.82;3.20;;;;;;;;;;4995784;28;20046;-60
2024/01/06 07:24:46;;;;;;;9.40;3.05;;;;;;;;;;4998282;28;20042;-60
2024/01/06 07:27:12;;;;;;;9.63;3.00;;;;;;;;;;5008756;28;20524;-59
2024/01/06 07:29:38;;;;;;;6.03;3.20;;;;;;;;;;5001524;28;20049;-59
2024/01/06 07:32:06;;;;;;;6.72;2.40;;;;;;;;;;5001189;28;20061;-60
2024/01/06 07:34:32;;;;;;;7.75;3.08;;;;;;;;;;5004288;28;20053;-59
2024/01/06 07:37:00;;;;;;;12.63;5.63;;;;;;;;;;4999490;28;20038;-59
2024/01/06 07:39:26;;;;;;;7.78;2.78;;;;;;;;;;5000175;28;20063;-59
2024/01/06 07:41:52;;;;;;;6.93;3.40;;;;;;;;;;4999615;28;20413;-60
2024/01/06 07:44:24;;;;;;;7.45;4.45;;;;;;;;;;5004920;28;20049;-58
2024/01/06 07:46:53;;;;;;;9.10;4.30;;;;;;;;;;4995495;28;20053;-59
2024/01/06 07:49:19;;;;;;;8.00;3.20;;;;;;;;;;4996180;28;20030;-59
2024/01/06 07:51:46;;;;;;;45.75;20.10;;;;;;;;;;4997705;28;20049;-58
2024/01/06 07:54:12;;;;;;;20.58;8.27;;;;;;;;;;5000249;28;20058;-60
2024/01/06 07:56:39;;;;;;;7.25;4.10;;;;;;;;;;5009016;28;20036;-58
2024/01/06 07:59:05;;;;;;;5.82;3.60;;;;;;;;;;5009294;28;20416;-60
2024/01/06 08:01:31;;;;;;;5.72;3.58;;;;;;;;;;5000962;28;20087;-56
2024/01/06 08:03:59;;;;;;;11.00;5.15;;;;;;;;;;4995411;28;20030;-59
2024/01/06 08:06:26;;;;;;;15.05;5.45;;;;;;;;;;5000178;28;20037;-59
2024/01/06 08:08:52;;;;;;;11.77;6.03;;;;;;;;;;4998119;28;20061;-60
2024/01/06 08:11:18;;;;;;;9.13;4.30;;;;;;;;;;4997165;28;20085;-60
2024/01/06 08:13:44;;;;;;;11.52;5.47;;;;;;;;;;5003578;28;20039;-60
2024/01/06 08:16:10;;;;;;;11.27;4.57;;;;;;;;;;5001803;28;20160;-59
2024/01/06 08:18:36;;;;;;;8.95;4.22;;;;;;;;;;5001162;28;20045;-59
2024/01/06 08:21:02;;;;;;;8.90;4.70;;;;;;;;;;4995744;28;20490;-60
2024/01/06 08:23:29;;;;;;;12.85;6.05;;;;;;;;;;4996013;28;20386;-60
2024/01/06 08:25:55;;;;;;;8.27;4.72;;;;;;;;;;4994334;28;20037;-58
2024/01/06 08:28:23;;;;;;;10.63;4.85;;;;;;;;;;5001361;28;20042;-59
2024/01/06 08:30:49;;;;;;;9.27;3.95;;;;;;;;;;4999986;28;20046;-60
2024/01/06 08:33:17;;;;;;;9.48;3.40;;;;;;;;;;4995144;28;20045;-60
2024/01/06 08:35:44;;;;;;;7.20;2.75;;;;;;;;;;5002740;28;20037;-58
2024/01/06 08:38:10;;;;;;;8.15;3.30;;;;;;;;;;5005163;28;20041;-59
2024/01/06 08:40:36;;;;;;;9.10;5.07;;;;;;;;;;4997535;28;20053;-58
2024/01/06 08:43:03;;;;;;;9.40;3.95;;;;;;;;;;4999573;28;20041;-58
2024/01/06 08:45:29;;;;;;;6.53;3.22;;;;;;;;;;5000562;28;20054;-59
2024/01/06 08:47:56;;;;;;;8.68;3.13;;;;;;;;;;5001610;28;20042;-59
2024/01/06 08:50:22;;;;;;;7.80;3.60;;;;;;;;;;5008463;28;20054;-59
2024/01/06 08:52:48;;;;;;;10.60;3.92;;;;;;;;;;5004740;28;20042;-58
2024/01/06 08:55:16;;;;;;;6.80;3.78;;;;;;;;;;5009913;28;20056;-58
2024/01/06 08:57:42;;;;;;;7.75;2.65;;;;;;;;;;5006544;28;20379;-58
2024/01/06 09:00:10;;;;;;;5.18;3.67;;;;;;;;;;4996654;28;20053;-58
2024/01/06 09:02:36;;;;;;;8.65;3.80;;;;;;;;;;5002375;28;20034;-58
2024/01/06 09:05:03;;;;;;;6.75;3.22;;;;;;;;;;5004397;28;20038;-59
2024/01/06 09:07:29;;;;;;;6.22;2.78;;;;;;;;;;5000806;28;20042;-59
2024/01/06 09:09:55;;;;;;;5.35;2.42;;;;;;;;;;5007376;28;20047;-58
2024/01/06 09:12:22;;;;;;;5.13;2.90;;;;;;;;;;4997275;28;20464;-58
2024/01/06 09:14:48;;;;;;;6.18;3.22;;;;;;;;;;5003072;28;20044;-60
2024/01/06 09:17:15;;;;;;;5.82;3.30;;;;;;;;;;5003429;28;20049;-58
2024/01/06 09:19:41;;;;;;;10.05;4.20;;;;;;;;;;4981395;28;20486;-58
2024/01/06 09:22:07;;;;;;;9.13;4.72;;;;;;;;;;4997980;28;20417;-57
2024/01/06 09:24:34;;;;;;;8.93;3.90;;;;;;;;;;5001956;28;20053;-57
2024/01/06 09:27:00;;;;;;;6.28;3.40;;;;;;;;;;5004554;28;20129;-58
2024/01/06 09:29:26;;;;;;;8.13;4.70;;;;;;;;;;5009962;28;20036;-57
2024/01/06 09:31:52;;;;;;;9.02;4.93;;;;;;;;;;5002084;28;20053;-59
2024/01/06 09:34:18;;;;;;;6.78;3.88;;;;;;;;;;5007289;28;20049;-58
2024/01/06 09:36:44;;;;;;;6.07;3.03;;;;;;;;;;4999369;28;20045;-58
2024/01/06 09:39:11;;;;;;;9.52;3.10;;;;;;;;;;5001578;28;20050;-58
2024/01/06 09:41:37;;;;;;;8.73;3.55;;;;;;;;;;5001038;28;20402;-58
2024/01/06 09:44:03;;;;;;;8.00;4.25;;;;;;;;;;5005060;28;20038;-57
2024/01/06 09:46:30;;;;;;;9.50;4.57;;;;;;;;;;5004671;28;20620;-57
2024/01/06 09:48:58;;;;;;;6.97;4.40;;;;;;;;;;4996284;28;20046;-57
2024/01/06 09:51:28;;;;;;;7.10;3.80;;;;;;;;;;5013997;28;20386;-58
2024/01/06 09:53:54;;;;;;;6.80;3.95;;;;;;;;;;5004883;28;20054;-61
2024/01/06 09:56:21;;;;;;;10.57;4.15;;;;;;;;;;5001457;28;20034;-60
2024/01/06 09:58:48;;;;;;;5.95;3.45;;;;;;;;;;5000996;28;20045;-57
2024/01/06 10:01:14;;;;;;;10.63;4.35;;;;;;;;;;4999642;28;20042;-59
2024/01/06 10:03:41;;;;;;;5.63;3.38;;;;;;;;;;4997278;28;20031;-61
2024/01/06 10:06:09;;;;;;;7.93;3.63;;;;;;;;;;5002602;28;20054;-60
2024/01/06 10:08:35;;;;;;;9.23;3.53;;;;;;;;;;4999729;28;20509;-59
2024/01/06 10:11:02;;;;;;;8.13;3.67;;;;;;;;;;5006685;28;20069;-59
2024/01/06 10:13:28;;;;;;;6.60;3.33;;;;;;;;;;5005573;28;20052;-59
2024/01/06 10:15:55;;;;;;;9.60;3.50;;;;;;;;;;5000619;28;20034;-59
2024/01/06 10:18:21;;;;;;;7.80;3.80;;;;;;;;;;5004763;28;20037;-59
2024/01/06 10:20:47;;;;;;;5.63;2.92;;;;;;;;;;4994853;28;20034;-59
2024/01/06 10:23:13;;;;;;;5.32;2.78;;;;;;;;;;4998685;28;20042;-58
2024/01/06 10:25:42;;;;;;;4.30;2.80;;;;;;;;;;5003068;28;20565;-59
2024/01/06 10:28:13;;;;;;;5.65;3.22;;;;;;;;;;4999057;28;20046;-60
2024/01/06 10:30:39;;;;;;;4.32;2.83;;;;;;;;;;5002910;28;20057;-55
2024/01/06 10:33:10;;;;;;;6.32;3.33;;;;;;;;;;5002233;28;20046;-56
2024/01/06 10:35:37;;;;;;;5.90;2.80;;;;;;;;;;5004690;28;20045;-55
2024/01/06 10:38:04;;;;;;;11.20;3.95;;;;;;;;;;5002888;28;20026;-56
2024/01/06 10:40:30;;;;;;;6.38;4.03;;;;;;;;;;5000897;28;20053;-55
2024/01/06 10:42:57;;;;;;;5.60;3.30;;;;;;;;;;4997648;28;20042;-55
2024/01/06 10:45:23;;;;;;;7.72;4.00;;;;;;;;;;4999014;28;20049;-55
2024/01/06 10:47:50;;;;;;;8.10;4.30;;;;;;;;;;5000949;28;20099;-56
2024/01/06 10:50:21;;;;;;;5.28;3.90;;;;;;;;;;4999292;28;20041;-56
2024/01/06 10:52:48;;;;;;;8.07;5.28;;;;;;;;;;5001890;28;20437;-55
2024/01/06 10:55:20;;;;;;;9.43;5.28;;;;;;;;;;4999873;28;20413;-55
2024/01/06 10:57:48;;;;;;;6.97;4.32;;;;;;;;;;4967054;28;20050;-54
2024/01/06 11:00:15;;;;;;;10.77;5.38;;;;;;;;;;4994054;28;20506;-54
2024/01/06 11:02:42;;;;;;;5.25;3.63;;;;;;;;;;4997874;28;20427;-57
2024/01/06 11:05:10;;;;;;;9.30;4.15;;;;;;;;;;4997735;28;20485;-56
2024/01/06 11:07:38;;;;;;;5.47;3.42;;;;;;;;;;4977953;28;20045;-53
2024/01/06 11:10:06;;;;;;;6.15;3.30;;;;;;;;;;4999125;28;20038;-58
2024/01/06 11:12:33;;;;;;;7.72;5.65;;;;;;;;;;4995562;28;20409;-56
2024/01/06 11:14:59;;;;;;;8.30;4.80;;;;;;;;;;4995355;28;20038;-54
2024/01/06 11:17:55;;;;;;;7.05;3.72;;;;;;;;;;4999646;28;20053;-58
2024/01/06 11:20:22;;;;;;;7.93;4.50;;;;;;;;;;4992481;28;20042;-58
2024/01/06 11:22:50;;;;;;;6.70;3.80;;;;;;;;;;4993956;28;20560;-55
2024/01/06 11:25:19;;;;;;;7.47;2.35;;;;;;;;;;5000492;28;20026;-55
2024/01/06 11:27:47;;;;;;;5.88;3.35;;;;;;;;;;4995812;28;20044;-55
2024/01/06 11:30:32;;;;;;;5.70;3.42;;;;;;;;;;5000596;28;20042;-53
2024/01/06 11:33:01;;;;;;;5.82;3.00;;;;;;;;;;4998585;28;20433;-55
2024/01/06 11:35:28;;;;;;;6.20;3.33;;;;;;;;;;4999980;28;20050;-55
2024/01/06 11:37:56;;;;;;;13.93;5.07;;;;;;;;;;4995174;28;20034;-53
2024/01/06 11:40:29;;;;;;;7.95;4.60;;;;;;;;;;4996550;28;20049;-55
2024/01/06 11:43:06;;;;;;;15.60;6.68;;;;;;;;;;4996768;28;20038;-54
2024/01/06 11:45:34;;;;;;;9.98;4.35;;;;;;;;;;4994131;28;20065;-55
2024/01/06 11:48:04;;;;;;;22.60;8.07;;;;;;;;;;4997988;28;20061;-55
2024/01/06 11:50:32;;;;;;;15.77;6.57;;;;;;;;;;5000333;28;21403;-54
2024/01/06 11:53:02;;;;;;;12.77;5.80;;;;;;;;;;4999510;28;20050;-54
2024/01/06 11:55:28;;;;;;;;;;;;;;;;;;4996152;28;20391;-56
2024/01/06 11:57:56;;;;;;;5.70;2.30;;;;;;;;;;5000522;28;19913;-53
2024/01/06 12:00:22;;;;;;;5.40;2.58;;;;;;;;;;5000176;28;20057;-55
2024/01/06 12:02:48;;;;;;;3.65;2.35;;;;;;;;;;4999093;28;20053;-54
2024/01/06 12:05:18;;;;;;;4.47;2.70;;;;;;;;;;5002287;28;20065;-55
2024/01/06 12:07:54;;;;;;;7.43;3.45;;;;;;;;;;5001864;28;20044;-54
2024/01/06 12:10:21;;;;;;;7.78;2.83;;;;;;;;;;4996417;28;20045;-56
2024/01/06 12:13:05;;;;;;;6.00;3.25;;;;;;;;;;4999856;28;20065;-57
2024/01/06 12:15:32;;;;;;;8.45;3.05;;;;;;;;;;4997201;28;20041;-57
2024/01/06 12:17:59;;;;;;;13.38;6.07;;;;;;;;;;5000200;28;20038;-58
2024/01/06 12:20:26;;;;;;;14.07;5.57;;;;;;;;;;4998182;28;20049;-57
2024/01/06 12:22:53;;;;;;;8.50;3.97;;;;;;;;;;4995804;28;20045;-56
2024/01/06 12:25:24;;;;;;;8.55;3.65;;;;;;;;;;4995061;28;20049;-56
2024/01/06 12:27:53;;;;;;;28.00;12.23;;;;;;;;;;5003578;28;20042;-53
2024/01/06 12:30:21;;;;;;;10.80;5.22;;;;;;;;;;4997127;28;20042;-56
2024/01/06 12:32:54;;;;;;;9.25;3.88;;;;;;;;;;4994495;28;20527;-57
2024/01/06 12:35:21;;;;;;;6.03;2.75;;;;;;;;;;5003315;28;20037;-57
2024/01/06 12:37:47;;;;;;;6.35;3.05;;;;;;;;;;5000777;28;20069;-57
2024/01/06 12:40:16;;;;;;;6.93;2.80;;;;;;;;;;5001733;28;20050;-57
2024/01/06 12:42:43;;;;;;;5.80;3.20;;;;;;;;;;4998013;28;20045;-57
2024/01/06 12:45:10;;;;;;;26.35;10.93;;;;;;;;;;5001123;28;20053;-57
2024/01/06 12:47:37;;;;;;;14.15;7.20;;;;;;;;;;4997004;28;20038;-59
2024/01/06 12:50:04;;;;;;;7.57;4.07;;;;;;;;;;4996059;28;20046;-58
2024/01/06 12:52:30;;;;;;;4.78;3.22;;;;;;;;;;4999435;28;20038;-57
2024/01/06 12:54:56;;;;;;;4.68;2.47;;;;;;;;;;4996577;28;20050;-58
2024/01/06 12:57:22;;;;;;;9.02;5.93;;;;;;;;;;5009496;28;20049;-57
2024/01/06 12:59:52;;;;;;;6.93;4.40;;;;;;;;;;4996825;28;20608;-54
2024/01/06 13:02:20;;;;;;;6.70;3.95;;;;;;;;;;5000843;28;20529;-56
2024/01/06 13:04:46;;;;;;;7.93;3.85;;;;;;;;;;4996287;28;20065;-57
2024/01/06 13:07:13;;;;;;;4.82;3.22;;;;;;;;;;4999765;28;20069;-57
2024/01/06 13:09:39;;;;;;;3.97;2.60;;;;;;;;;;5001462;28;20053;-56
2024/01/06 13:12:06;;;;;;;4.20;2.10;;;;;;;;;;5001183;28;20061;-53
2024/01/06 13:14:32;;;;;;;3.25;2.22;;;;;;;;;;5001801;28;20048;-56
2024/01/06 13:16:58;;;;;;;2.90;1.80;;;;;;;;;;4999585;28;20043;-58
2024/01/06 13:19:25;;;;;;;2.90;1.60;;;;;;;;;;4997656;28;20042;-57
2024/01/06 13:21:51;;;;;;;2.67;1.65;;;;;;;;;;4991069;28;20533;-58
2024/01/06 13:24:18;;;;;;;2.22;1.48;;;;;;;;;;4997984;28;20053;-57
2024/01/06 13:26:44;;;;;;;2.70;1.70;;;;;;;;;;5000534;28;20034;-57
2024/01/06 13:29:11;;;;;;;2.72;1.80;;;;;;;;;;4994682;28;20057;-57
2024/01/06 13:31:37;;;;;;;3.83;1.73;;;;;;;;;;5000512;28;20090;-55
2024/01/06 13:34:03;;;;;;;2.17;1.70;;;;;;;;;;4995608;28;20069;-58
2024/01/06 13:36:29;;;;;;;3.60;2.03;;;;;;;;;;4999248;28;20044;-56
2024/01/06 13:38:55;;;;;;;4.10;2.45;;;;;;;;;;4999467;28;20073;-57
2024/01/06 13:41:21;;;;;;;3.78;2.60;;;;;;;;;;5000836;28;20520;-56
2024/01/06 13:43:48;;;;;;;4.95;3.08;;;;;;;;;;4998012;28;20045;-57
2024/01/06 13:46:14;;;;;;;3.70;2.55;;;;;;;;;;5000728;28;20054;-56
2024/01/06 13:48:41;;;;;;;3.00;1.73;;;;;;;;;;4996588;28;20057;-56
2024/01/06 13:51:07;;;;;;;3.63;2.22;;;;;;;;;;4998479;28;20045;-56
2024/01/06 13:53:34;;;;;;;4.50;2.38;;;;;;;;;;5000415;28;20046;-58
2024/01/06 13:56:00;;;;;;;4.63;2.58;;;;;;;;;;5000198;28;20046;-56
2024/01/06 13:58:27;;;;;;;7.07;3.17;;;;;;;;;;5002680;28;20041;-53
2024/01/06 14:00:53;;;;;;;5.07;3.05;;;;;;;;;;5003022;28;20052;-57
2024/01/06 14:03:20;;;;;;;6.07;2.75;;;;;;;;;;5002154;28;20060;-58
2024/01/06 14:05:46;;;;;;;5.97;3.25;;;;;;;;;;5004000;28;20045;-57
2024/01/06 14:08:14;;;;;;;6.32;3.50;;;;;;;;;;5001216;28;20042;-56
2024/01/06 14:10:40;;;;;;;5.13;3.20;;;;;;;;;;5006262;28;20042;-55
2024/01/06 14:13:07;;;;;;;5.63;2.75;;;;;;;;;;5003801;28;20442;-56
2024/01/06 14:15:35;;;;;;;5.35;3.20;;;;;;;;;;5000352;28;20041;-56
2024/01/06 14:18:03;;;;;;;5.72;2.83;;;;;;;;;;5001128;28;20038;-55
2024/01/06 14:20:31;;;;;;;5.03;2.97;;;;;;;;;;5001015;28;20045;-54
2024/01/06 14:22:58;;;;;;;10.93;4.80;;;;;;;;;;5001057;28;20042;-55
2024/01/06 14:25:24;;;;;;;10.23;5.32;;;;;;;;;;4994149;28;20034;-54
2024/01/06 14:27:50;;;;;;;10.65;5.20;;;;;;;;;;5003576;28;20520;-56
2024/01/06 14:30:17;;;;;;;9.93;5.22;;;;;;;;;;4999119;28;20053;-55
2024/01/06 14:32:43;;;;;;;11.98;6.32;;;;;;;;;;5005352;28;20045;-55
2024/01/06 14:35:14;;;;;;;14.40;6.22;;;;;;;;;;5001163;28;20054;-55